createdAt,value
2019-02-28T00:02:23.096Z,60.02
2019-02-28T00:04:49.191Z,59.34
2019-02-28T00:07:17.819Z,59.38
2019-02-28T00:09:44.397Z,59.19
2019-02-28T00:12:13.701Z,58.94
2019-02-28T00:14:39.718Z,58.67
2019-02-28T00:17:06.231Z,58.78
2019-02-28T00:19:33.924Z,58.60
2019-02-28T00:22:00.067Z,58.71
2019-02-28T00:24:27.170Z,58.42
2019-02-28T00:26:54.582Z,58.27
2019-02-28T00:29:20.884Z,58.17
2019-02-28T00:31:49.918Z,58.18
2019-02-28T00:34:15.096Z,58.17
2019-02-28T00:36:41.172Z,58.13
2019-02-28T00:39:07.392Z,57.98
2019-02-28T00:41:33.814Z,58.14
2019-02-28T00:43:59.904Z,58.11
2019-02-28T00:46:26.075Z,58.06
2019-02-28T00:48:53.011Z,57.92
2019-02-28T00:51:20.169Z,57.78
2019-02-28T00:53:46.262Z,57.64
2019-02-28T00:56:12.443Z,57.86
2019-02-28T00:58:38.697Z,58.13
2019-02-28T01:01:04.960Z,58.49
2019-02-28T01:03:31.191Z,58.78
2019-02-28T01:05:57.492Z,58.88
2019-02-28T01:08:23.843Z,58.54
2019-02-28T01:10:49.948Z,58.28
2019-02-28T01:13:17.161Z,58.47
2019-02-28T01:15:44.878Z,58.71
2019-02-28T01:18:11.405Z,58.98
2019-02-28T01:20:37.661Z,58.99
2019-02-28T01:23:03.996Z,59.46
2019-02-28T01:25:30.101Z,59.64
2019-02-28T01:27:56.419Z,59.39
2019-02-28T01:30:22.685Z,59.53
2019-02-28T01:32:50.895Z,60.52
2019-02-28T01:35:17.008Z,60.90
2019-02-28T01:37:43.313Z,60.86
2019-02-28T01:40:11.319Z,60.66
2019-02-28T01:42:37.465Z,61.00
2019-02-28T01:45:07.037Z,60.57
2019-02-28T01:47:34.392Z,60.60
2019-02-28T01:50:00.494Z,60.51
2019-02-28T01:52:26.708Z,60.74
2019-02-28T01:54:52.933Z,61.19
2019-02-28T01:57:19.237Z,60.71
2019-02-28T01:59:45.364Z,60.56
2019-02-28T02:02:11.672Z,60.83
2019-02-28T02:04:37.988Z,61.05
2019-02-28T02:07:04.277Z,60.28
2019-02-28T02:09:30.466Z,61.11
2019-02-28T02:11:59.128Z,60.25
2019-02-28T02:14:25.371Z,60.80
2019-02-28T02:16:51.407Z,60.57
2019-02-28T02:19:18.531Z,61.62
2019-02-28T02:21:45.005Z,61.04
2019-02-28T02:24:11.300Z,61.66
2019-02-28T02:26:37.409Z,62.15
2019-02-28T02:29:09.008Z,61.09
2019-02-28T02:31:35.309Z,60.85
2019-02-28T02:34:05.287Z,61.60
2019-02-28T02:36:31.491Z,61.63
2019-02-28T02:38:57.683Z,60.83
2019-02-28T02:41:23.736Z,62.29
2019-02-28T02:43:49.834Z,62.99
2019-02-28T02:46:20.164Z,62.82
2019-02-28T02:48:43.932Z,62.53
2019-02-28T02:51:11.339Z,62.99
2019-02-28T02:53:42.157Z,63.00
2019-02-28T02:56:06.147Z,64.77
2019-02-28T02:58:33.413Z,64.46
2019-02-28T03:00:59.607Z,64.31
2019-02-28T03:03:25.796Z,64.66
2019-02-28T03:05:51.887Z,64.87
2019-02-28T03:08:17.976Z,65.47
2019-02-28T03:10:44.242Z,65.31
2019-02-28T03:13:10.326Z,65.27
2019-02-28T03:15:36.437Z,66.23
2019-02-28T03:18:06.448Z,66.34
2019-02-28T03:20:32.641Z,66.63
2019-02-28T03:23:02.232Z,66.53
2019-02-28T03:25:28.271Z,68.35
2019-02-28T03:27:56.431Z,67.09
2019-02-28T03:30:31.119Z,66.93
2019-02-28T03:32:51.051Z,66.72
2019-02-28T03:35:17.177Z,66.59
2019-02-28T03:37:43.529Z,66.93
2019-02-28T03:40:13.060Z,67.69
2019-02-28T03:42:39.361Z,67.65
2019-02-28T03:45:10.650Z,68.51
2019-02-28T03:47:36.828Z,67.05
2019-02-28T03:50:08.519Z,67.54
2019-02-28T03:52:41.794Z,66.95
2019-02-28T03:55:05.494Z,67.01
2019-02-28T03:57:31.911Z,68.66
2019-02-28T03:59:58.077Z,69.24
2019-02-28T04:02:24.385Z,70.78
2019-02-28T04:04:50.953Z,70.26
2019-02-28T04:07:17.221Z,70.15
2019-02-28T04:09:44.311Z,70.12
2019-02-28T04:12:11.522Z,70.75
2019-02-28T04:14:37.636Z,70.71
2019-02-28T04:17:06.623Z,69.72
2019-02-28T04:19:32.937Z,70.15
2019-02-28T04:21:59.146Z,69.12
2019-02-28T04:24:25.251Z,68.30
2019-02-28T04:26:51.586Z,69.70
2019-02-28T04:29:17.668Z,69.45
2019-02-28T04:31:43.746Z,69.16
2019-02-28T04:34:13.058Z,69.73
2019-02-28T04:36:37.927Z,69.58
2019-02-28T04:39:08.514Z,69.17
2019-02-28T04:41:36.663Z,69.07
2019-02-28T04:44:04.972Z,69.17
2019-02-28T04:46:33.873Z,69.53
2019-02-28T04:48:59.972Z,69.61
2019-02-28T04:51:26.069Z,70.23
2019-02-28T04:53:54.100Z,70.26
2019-02-28T04:56:20.409Z,70.17
2019-02-28T04:58:46.481Z,70.88
2019-02-28T05:01:13.429Z,70.19
2019-02-28T05:03:39.712Z,69.69
2019-02-28T05:06:07.385Z,71.16
2019-02-28T05:08:38.560Z,71.64
2019-02-28T05:11:04.389Z,69.99
2019-02-28T05:13:30.451Z,70.06
2019-02-28T05:15:56.788Z,70.76
2019-02-28T05:18:22.915Z,69.65
2019-02-28T05:20:49.040Z,70.75
2019-02-28T05:23:15.151Z,70.98
2019-02-28T05:25:41.487Z,72.29
2019-02-28T05:28:07.625Z,72.84
2019-02-28T05:30:33.699Z,73.46
2019-02-28T05:32:59.827Z,73.59
2019-02-28T05:35:28.587Z,74.13
2019-02-28T05:37:54.811Z,73.56
2019-02-28T05:40:20.979Z,74.83
2019-02-28T05:42:47.220Z,75.33
2019-02-28T05:45:14.752Z,74.58
2019-02-28T05:47:46.119Z,76.25
2019-02-28T05:50:15.155Z,75.86
2019-02-28T05:52:40.306Z,72.07
2019-02-28T05:55:08.942Z,70.86
2019-02-28T05:57:35.159Z,70.08
2019-02-28T06:00:09.908Z,69.62
2019-02-28T06:02:36.207Z,69.43
2019-02-28T06:05:08.487Z,68.55
2019-02-28T06:07:34.904Z,69.83
2019-02-28T06:10:09.176Z,73.75
2019-02-28T06:12:35.257Z,75.96
2019-02-28T06:15:09.522Z,76.53
2019-02-28T06:17:35.712Z,76.64
2019-02-28T06:20:08.335Z,75.74
2019-02-28T06:22:36.198Z,76.68
2019-02-28T06:25:09.797Z,74.84
2019-02-28T06:27:41.673Z,74.22
2019-02-28T06:30:10.238Z,74.30
2019-02-28T06:32:36.441Z,74.09
2019-02-28T06:35:16.157Z,73.54
2019-02-28T06:37:39.792Z,73.62
2019-02-28T06:40:13.010Z,73.10
2019-02-28T06:42:39.305Z,72.79
2019-02-28T06:45:11.245Z,72.67
2019-02-28T06:47:39.076Z,72.79
2019-02-28T06:50:09.271Z,71.78
2019-02-28T06:52:35.387Z,71.54
2019-02-28T06:55:03.880Z,71.82
2019-02-28T06:57:30.357Z,72.50
2019-02-28T06:59:56.581Z,73.73
2019-02-28T07:02:22.853Z,73.01
2019-02-28T07:04:49.619Z,72.04
2019-02-28T07:07:16.774Z,71.87
2019-02-28T07:09:42.882Z,71.91
2019-02-28T07:12:09.183Z,70.74
2019-02-28T07:14:35.307Z,70.15
2019-02-28T07:17:17.541Z,68.46
2019-02-28T07:19:43.633Z,68.79
2019-02-28T07:22:09.859Z,69.22
2019-02-28T07:24:37.572Z,69.84
2019-02-28T07:27:04.323Z,69.52
2019-02-28T07:29:32.070Z,69.81
2019-02-28T07:32:01.249Z,70.71
2019-02-28T07:34:26.634Z,70.54
2019-02-28T07:36:52.722Z,71.28
2019-02-28T07:39:18.909Z,71.87
2019-02-28T07:41:45.127Z,71.70
2019-02-28T07:44:11.214Z,71.34
2019-02-28T07:46:38.806Z,71.14
2019-02-28T07:49:05.670Z,71.02
2019-02-28T07:51:31.871Z,70.80
2019-02-28T07:53:59.163Z,71.01
2019-02-28T07:56:25.286Z,71.17
2019-02-28T07:58:52.150Z,70.77
2019-02-28T08:01:19.575Z,70.48
2019-02-28T08:03:45.743Z,70.55
2019-02-28T08:06:11.839Z,70.53
2019-02-28T08:08:38.031Z,70.37
2019-02-28T08:11:04.460Z,69.79
2019-02-28T08:13:30.831Z,69.86
2019-02-28T08:16:00.236Z,69.57
2019-02-28T08:18:25.377Z,69.74
2019-02-28T08:20:51.535Z,69.09
2019-02-28T08:23:17.656Z,68.68
2019-02-28T08:25:43.858Z,68.26
2019-02-28T08:28:10.088Z,68.65
2019-02-28T08:30:36.391Z,69.04
2019-02-28T08:33:02.894Z,68.97
2019-02-28T08:35:33.936Z,69.56
2019-02-28T08:37:57.486Z,70.27
2019-02-28T08:40:26.768Z,69.81
2019-02-28T08:42:52.860Z,69.82
2019-02-28T08:45:19.150Z,68.50
2019-02-28T08:47:45.447Z,68.37
2019-02-28T08:50:20.212Z,68.07
2019-02-28T08:52:48.349Z,70.19
2019-02-28T08:55:14.778Z,69.51
2019-02-28T08:57:44.407Z,68.76
2019-02-28T09:00:19.044Z,68.23
2019-02-28T09:02:45.458Z,68.66
2019-02-28T09:05:12.459Z,67.67
2019-02-28T09:07:38.759Z,68.75
2019-02-28T09:10:11.808Z,68.58
2019-02-28T09:12:36.892Z,68.15
2019-02-28T09:15:05.422Z,68.85
2019-02-28T09:17:31.653Z,68.79
2019-02-28T09:19:57.923Z,68.97
2019-02-28T09:22:26.877Z,68.24
2019-02-28T09:24:52.580Z,68.32
2019-02-28T09:27:18.759Z,69.14
2019-02-28T09:29:46.158Z,67.41
2019-02-28T09:32:13.625Z,68.33
2019-02-28T09:34:43.667Z,67.77
2019-02-28T09:37:09.764Z,67.44
2019-02-28T09:39:35.849Z,66.07
2019-02-28T09:42:02.173Z,66.81
2019-02-28T09:44:31.534Z,64.53
2019-02-28T09:46:56.644Z,65.65
2019-02-28T09:51:48.712Z,66.41
2019-02-28T09:54:14.831Z,66.30
2019-02-28T09:56:44.477Z,66.32
2019-02-28T09:59:09.226Z,65.08
2019-02-28T10:01:35.440Z,65.35
2019-02-28T10:04:01.561Z,65.76
2019-02-28T10:06:27.964Z,64.62
2019-02-28T10:08:54.291Z,63.34
2019-02-28T10:11:21.810Z,63.85
2019-02-28T10:13:49.583Z,64.07
2019-02-28T10:16:16.788Z,63.43
2019-02-28T10:18:43.870Z,64.12
2019-02-28T10:21:09.956Z,63.77
2019-02-28T10:23:36.179Z,63.12
2019-02-28T10:26:02.660Z,64.84
2019-02-28T10:28:29.009Z,64.05
2019-02-28T10:30:55.214Z,63.77
2019-02-28T10:33:21.404Z,63.73
2019-02-28T10:35:47.621Z,61.58
2019-02-28T10:38:13.960Z,62.49
2019-02-28T10:40:40.191Z,61.31
2019-02-28T10:43:06.431Z,60.71
2019-02-28T10:45:32.846Z,60.03
2019-02-28T10:48:02.867Z,61.30
2019-02-28T10:50:33.259Z,60.83
2019-02-28T10:53:04.235Z,60.57
2019-02-28T10:55:27.759Z,60.84
2019-02-28T10:57:53.969Z,61.30
2019-02-28T11:00:32.770Z,59.70
2019-02-28T11:03:00.155Z,61.12
2019-02-28T11:05:29.917Z,60.59
2019-02-28T11:07:56.628Z,59.58
2019-02-28T11:10:26.556Z,59.79
2019-02-28T11:12:54.349Z,58.94
2019-02-28T11:15:23.046Z,58.55
2019-02-28T11:17:49.267Z,59.77
2019-02-28T11:20:22.080Z,59.57
2019-02-28T11:22:44.333Z,60.23
2019-02-28T11:25:13.654Z,60.76
2019-02-28T11:27:40.566Z,60.07
2019-02-28T11:30:25.841Z,58.46
2019-02-28T11:32:52.508Z,58.89
2019-02-28T11:35:20.145Z,57.78
2019-02-28T11:37:47.128Z,56.98
2019-02-28T11:40:17.099Z,56.83
2019-02-28T11:42:43.508Z,55.60
2019-02-28T11:45:18.549Z,55.73
2019-02-28T11:47:45.408Z,56.46
2019-02-28T11:50:11.675Z,55.26
2019-02-28T11:52:38.068Z,55.92
2019-02-28T11:55:07.644Z,57.43
2019-02-28T11:57:33.975Z,54.99
2019-02-28T12:00:00.447Z,55.43
2019-02-28T12:02:29.491Z,56.11
2019-02-28T12:04:55.813Z,57.33
2019-02-28T12:07:22.186Z,57.32
2019-02-28T12:09:51.356Z,57.44
2019-02-28T12:12:16.410Z,58.13
2019-02-28T12:14:42.690Z,57.95
2019-02-28T12:17:08.888Z,57.52
2019-02-28T12:19:35.125Z,58.11
2019-02-28T12:22:01.344Z,57.14
2019-02-28T12:24:29.368Z,56.90
2019-02-28T12:26:56.535Z,56.55
2019-02-28T12:29:22.781Z,56.42
2019-02-28T12:31:48.982Z,55.42
2019-02-28T12:34:15.222Z,55.44
2019-02-28T12:36:41.332Z,55.98
2019-02-28T12:39:07.802Z,54.70
2019-02-28T12:41:35.426Z,56.56
2019-02-28T12:44:02.288Z,56.14
2019-02-28T12:46:31.778Z,56.33
2019-02-28T12:48:56.914Z,56.38
2019-02-28T12:51:23.287Z,56.17
2019-02-28T12:53:51.668Z,54.89
2019-02-28T12:56:18.071Z,56.02
2019-02-28T12:58:44.405Z,56.86
2019-02-28T13:01:11.057Z,56.62
2019-02-28T13:03:37.397Z,57.06
2019-02-28T13:06:03.705Z,58.38
2019-02-28T13:08:30.045Z,58.40
2019-02-28T13:11:03.220Z,57.98
2019-02-28T13:13:27.757Z,59.01
2019-02-28T13:15:52.915Z,59.28
2019-02-28T13:18:19.137Z,58.19
2019-02-28T13:20:45.340Z,57.57
2019-02-28T13:23:11.892Z,57.65
2019-02-28T13:25:39.214Z,57.38
2019-02-28T13:28:06.448Z,57.67
2019-02-28T13:30:32.779Z,58.08
2019-02-28T13:32:59.064Z,56.66
2019-02-28T13:35:28.478Z,56.11
2019-02-28T13:37:54.695Z,55.84
2019-02-28T13:40:22.219Z,54.77
2019-02-28T13:42:48.793Z,54.44
2019-02-28T13:45:22.994Z,54.38
2019-02-28T13:47:46.391Z,54.43
2019-02-28T13:50:33.072Z,53.82
2019-02-28T13:53:03.413Z,53.81
2019-02-28T13:55:27.821Z,55.06
2019-02-28T13:57:55.106Z,52.99
2019-02-28T14:00:23.671Z,51.79
2019-02-28T14:02:55.718Z,52.23
2019-02-28T14:05:23.076Z,54.12
2019-02-28T14:07:49.675Z,54.92
2019-02-28T14:10:18.217Z,53.26
2019-02-28T14:12:44.618Z,53.05
2019-02-28T14:15:15.499Z,53.68
2019-02-28T14:17:42.271Z,52.86
2019-02-28T14:20:09.990Z,55.24
2019-02-28T14:22:37.420Z,54.43
2019-02-28T14:25:06.427Z,53.79
2019-02-28T14:27:33.378Z,53.27
2019-02-28T14:29:59.885Z,52.42
2019-02-28T14:32:26.231Z,52.26
2019-02-28T14:34:52.563Z,51.06
2019-02-28T14:37:19.614Z,52.77
2019-02-28T14:39:46.625Z,53.11
2019-02-28T14:42:12.783Z,53.24
2019-02-28T14:44:39.140Z,54.55
2019-02-28T14:47:05.432Z,54.13
2019-02-28T14:49:31.653Z,53.30
2019-02-28T14:52:00.425Z,53.27
2019-02-28T14:54:25.956Z,51.57
2019-02-28T14:56:52.123Z,51.41
2019-02-28T14:59:18.382Z,51.60
2019-02-28T15:01:44.613Z,51.27
2019-02-28T15:04:18.739Z,52.60
2019-02-28T15:06:47.232Z,52.37
2019-02-28T15:09:14.706Z,52.74
2019-02-28T15:11:43.609Z,53.40
2019-02-28T15:14:09.776Z,53.19
2019-02-28T15:16:36.047Z,53.87
2019-02-28T15:19:18.032Z,53.97
2019-02-28T15:21:44.376Z,54.30
2019-02-28T15:24:10.705Z,55.28
2019-02-28T15:26:36.937Z,55.09
2019-02-28T15:29:05.602Z,55.29
2019-02-28T15:31:34.366Z,55.88
2019-02-28T15:34:07.542Z,56.87
2019-02-28T15:36:33.766Z,56.25
2019-02-28T15:38:59.956Z,56.59
2019-02-28T15:41:26.188Z,55.69
2019-02-28T15:43:53.736Z,56.39
2019-02-28T15:46:21.820Z,55.97
2019-02-28T15:48:49.739Z,56.53
2019-02-28T15:51:25.782Z,56.96
2019-02-28T15:53:53.162Z,56.74
2019-02-28T15:56:21.721Z,56.97
2019-02-28T15:58:47.993Z,56.92
2019-02-28T16:01:14.333Z,57.19
2019-02-28T16:03:40.617Z,57.71
2019-02-28T16:06:06.848Z,58.41
2019-02-28T16:08:33.162Z,57.19
2019-02-28T16:10:59.409Z,56.86
2019-02-28T16:13:25.972Z,57.66
2019-02-28T16:15:52.864Z,57.00
2019-02-28T16:18:19.000Z,57.20
2019-02-28T16:20:45.200Z,57.16
2019-02-28T16:23:11.433Z,57.91
2019-02-28T16:25:38.594Z,57.83
2019-02-28T16:28:07.810Z,58.26
2019-02-28T16:30:34.435Z,58.03
2019-02-28T16:33:01.326Z,58.07
2019-02-28T16:35:29.020Z,58.86
2019-02-28T16:37:55.478Z,58.46
2019-02-28T16:40:26.926Z,58.21
2019-02-28T16:42:52.965Z,58.41
2019-02-28T16:45:26.860Z,59.58
2019-02-28T16:47:55.698Z,59.43
2019-02-28T16:50:21.217Z,59.62
2019-02-28T16:52:47.387Z,60.84
2019-02-28T16:55:13.746Z,62.32
2019-02-28T16:57:39.961Z,62.85
2019-02-28T17:00:09.989Z,63.45
2019-02-28T17:02:36.421Z,64.01
2019-02-28T17:05:05.223Z,64.67
2019-02-28T17:07:31.659Z,64.21
2019-02-28T17:09:57.973Z,64.99
2019-02-28T17:12:28.945Z,65.31
2019-02-28T17:14:55.203Z,65.65
2019-02-28T17:17:25.934Z,65.79
2019-02-28T17:19:52.207Z,65.56
2019-02-28T17:22:18.412Z,65.82
2019-02-28T17:24:46.154Z,65.82
2019-02-28T17:27:24.786Z,65.88
2019-02-28T17:29:52.868Z,66.07
2019-02-28T17:32:19.688Z,66.07
2019-02-28T17:34:47.243Z,66.35
2019-02-28T17:37:13.760Z,66.35
2019-02-28T17:39:40.223Z,65.79
2019-02-28T17:42:08.760Z,66.17
2019-02-28T17:44:41.551Z,66.15
2019-02-28T17:47:29.174Z,66.37
2019-02-28T17:50:08.445Z,66.01
2019-02-28T17:52:47.014Z,66.29
2019-02-28T17:55:36.865Z,66.83
2019-02-28T17:58:06.911Z,66.58
2019-02-28T18:00:54.536Z,66.96
2019-02-28T18:03:36.915Z,66.96
2019-02-28T18:06:12.845Z,66.55
2019-02-28T18:08:45.968Z,66.48
2019-02-28T18:11:30.940Z,66.69
2019-02-28T18:14:11.876Z,67.24
2019-02-28T18:17:01.357Z,67.38
2019-02-28T18:19:43.481Z,67.68
2019-02-28T18:22:25.738Z,67.54
2019-02-28T18:25:14.072Z,67.74
2019-02-28T18:27:57.418Z,68.08
2019-02-28T18:31:00.881Z,68.03
2019-02-28T18:33:27.184Z,67.48
2019-02-28T18:35:53.366Z,67.50
2019-02-28T18:38:19.674Z,67.58
2019-02-28T18:40:45.936Z,67.84
2019-02-28T18:43:12.359Z,68.14
2019-02-28T18:45:38.571Z,68.02
2019-02-28T18:48:04.990Z,67.95
2019-02-28T18:50:31.425Z,68.04
2019-02-28T18:52:57.781Z,68.14
2019-02-28T18:55:24.196Z,68.11
2019-02-28T18:57:50.522Z,68.35
2019-02-28T19:00:18.835Z,68.19
2019-02-28T19:02:45.269Z,68.18
2019-02-28T19:05:12.660Z,68.13
2019-02-28T19:07:40.364Z,68.07
2019-02-28T19:10:08.473Z,68.10
2019-02-28T19:12:35.589Z,68.06
2019-02-28T19:15:02.430Z,68.05
2019-02-28T19:17:30.125Z,68.07
2019-02-28T19:19:57.551Z,68.40
2019-02-28T19:22:23.887Z,68.04
2019-02-28T19:24:49.951Z,68.05
2019-02-28T19:27:16.263Z,68.16
2019-02-28T19:29:42.611Z,67.85
2019-02-28T19:32:08.897Z,67.70
2019-02-28T19:34:35.423Z,67.52
2019-02-28T19:37:01.662Z,67.24
2019-02-28T19:39:27.981Z,67.39
2019-02-28T19:41:54.422Z,67.27
2019-02-28T19:44:20.865Z,67.27
2019-02-28T19:46:47.183Z,67.22
2019-02-28T19:49:13.550Z,67.28
2019-02-28T19:51:40.448Z,67.20
2019-02-28T19:54:06.683Z,66.88
2019-02-28T19:56:32.915Z,67.08
2019-02-28T19:58:59.371Z,67.39
2019-02-28T20:01:25.674Z,67.72
2019-02-28T20:03:51.909Z,67.91
2019-02-28T20:06:18.251Z,67.31
2019-02-28T20:08:44.581Z,67.67
2019-02-28T20:11:14.104Z,67.58
2019-02-28T20:13:40.623Z,67.93
2019-02-28T20:16:12.588Z,68.03
2019-02-28T20:18:47.552Z,68.29
2019-02-28T20:21:14.472Z,68.34
2019-02-28T20:23:42.699Z,68.17
2019-02-28T20:26:08.953Z,67.93
2019-02-28T20:28:35.283Z,68.14
2019-02-28T20:33:41.042Z,67.82
2019-02-28T20:36:10.709Z,68.04
2019-02-28T20:38:37.079Z,67.81
2019-02-28T20:41:10.509Z,68.22
2019-02-28T20:43:41.091Z,68.14
2019-02-28T20:46:10.628Z,67.88
2019-02-28T20:48:36.925Z,67.62
2019-02-28T20:51:09.963Z,67.83
2019-02-28T20:53:36.417Z,67.77
2019-02-28T20:56:09.045Z,67.81
2019-02-28T20:58:35.306Z,67.95
2019-02-28T21:01:06.626Z,67.93
2019-02-28T21:03:34.507Z,67.98
2019-02-28T21:08:40.218Z,68.07
2019-02-28T21:11:12.542Z,68.20
2019-02-28T21:13:38.991Z,68.21
2019-02-28T21:16:09.405Z,68.38
2019-02-28T21:18:35.610Z,68.04
2019-02-28T21:21:05.894Z,67.78
2019-02-28T21:23:32.266Z,67.29
2019-02-28T21:25:59.380Z,67.35
2019-02-28T21:28:27.552Z,67.02
2019-02-28T21:30:53.761Z,67.02
2019-02-28T21:33:20.011Z,67.51
2019-02-28T21:35:46.438Z,67.56
2019-02-28T21:38:13.404Z,67.36
2019-02-28T21:40:40.947Z,67.42
2019-02-28T21:43:09.893Z,67.42
2019-02-28T21:45:42.398Z,67.70
2019-02-28T21:48:16.579Z,67.89
2019-02-28T21:50:42.973Z,68.23
2019-02-28T21:53:09.247Z,68.34
2019-02-28T21:55:35.611Z,69.00
2019-02-28T21:58:13.105Z,69.30
2019-02-28T22:00:39.577Z,69.81
2019-02-28T22:03:06.266Z,70.50
2019-02-28T22:05:32.665Z,71.05
2019-02-28T22:07:58.952Z,71.42
2019-02-28T22:10:25.386Z,71.21
2019-02-28T22:12:53.237Z,71.30
2019-02-28T22:15:22.211Z,71.19
2019-02-28T22:17:48.350Z,71.76
2019-02-28T22:20:16.560Z,71.44
2019-02-28T22:22:42.915Z,71.04
2019-02-28T22:25:15.754Z,71.22
2019-02-28T22:27:42.102Z,71.45
2019-02-28T22:30:34.792Z,70.96
2019-02-28T22:33:32.503Z,70.87
2019-02-28T22:36:00.499Z,70.78
2019-02-28T22:38:33.240Z,70.60
2019-02-28T22:40:59.473Z,71.26
2019-02-28T22:43:25.809Z,71.69
2019-02-28T22:45:52.057Z,71.66
2019-02-28T22:48:18.267Z,71.57
2019-02-28T22:50:44.618Z,71.80
2019-02-28T22:53:10.976Z,72.21
2019-02-28T22:55:37.082Z,72.42
2019-02-28T22:58:08.098Z,72.59
2019-02-28T23:01:06.853Z,72.68
2019-02-28T23:03:35.653Z,73.07
2019-02-28T23:06:02.207Z,73.73
2019-02-28T23:08:28.516Z,73.65
2019-02-28T23:10:54.807Z,74.12
2019-02-28T23:13:21.087Z,73.96
2019-02-28T23:15:47.322Z,74.55
2019-02-28T23:18:14.030Z,75.13
2019-02-28T23:20:40.211Z,74.75
2019-02-28T23:23:06.523Z,75.24
2019-02-28T23:25:33.071Z,75.47
2019-02-28T23:28:23.453Z,75.48
2019-02-28T23:30:56.341Z,75.76
2019-02-28T23:33:22.444Z,75.84
2019-02-28T23:35:48.764Z,75.76
2019-02-28T23:38:14.957Z,76.37
2019-02-28T23:40:41.148Z,76.71
2019-02-28T23:43:07.364Z,76.58
2019-02-28T23:45:33.693Z,76.67
2019-02-28T23:47:59.883Z,76.88
2019-02-28T23:50:26.213Z,77.47
2019-02-28T23:52:52.419Z,77.73
2019-02-28T23:55:18.523Z,77.58
2019-02-28T23:57:44.699Z,77.61
